F\v Tenia — FPMH — position and weather

sailwx.info

Track history (hours):
 
Tides and Currents Weather Stations Pressure Air Temp Water Temp Dewpoint Dewpoint Depression Visibility Wind Speed Wind Dir Waves Ship Positions

F\v Tenia

Last reported at 2016-Feb-06 10:30 UTC. Time now 2016-Feb-06 18:42 UTC.
Position N 44°30' W 002°05'.

Length 22 m; draft 4 m.

Type: Fishing. MMSI: 227575000.

Date/timePositionNaut miles runAvg speedWind from/ knotsBaromVisibWave heightAir tempDewpointWater temp
2016-Feb-06 10:30N 44°30' W 002°05'0 0.4
2016-Feb-06 09:31N 44°29' W 002°05'1 1.0
2016-Feb-06 08:33N 44°30' W 002°06'0 0.4
2016-Feb-06 07:33N 44°30' W 002°07'1 0.9
2016-Feb-06 06:32N 44°29' W 002°06'1 0.8
2016-Feb-06 05:23N 44°28' W 002°05'1 1.0
2016-Feb-06 04:12N 44°29' W 002°05'1 0.9
2016-Feb-06 03:28N 44°29' W 002°05'2 1.9
2016-Feb-06 02:33N 44°27' W 002°06'5 5.0
2016-Feb-06 01:33N 44°32' W 002°06'6 5.5
2016-Feb-06 00:33N 44°37' W 002°02'0 0.3
2016-Feb-05 23:33N 44°37' W 002°02'1 0.6
2016-Feb-05 22:21N 44°38' W 002°02'  
2016-Feb-02 05:08N 44°38' W 002°01'2 1.8
2016-Feb-02 04:06N 44°37' W 002°03'2 0.1
2016-Feb-01 14:25N 44°38' W 002°01'1 0.7
2016-Feb-01 13:28N 44°38' W 002°02'  
2016-Jan-28 02:13N 44°35' W 002°05'5 2.5
2016-Jan-28 00:05N 44°40' W 002°01'3 4.4
2016-Jan-27 23:30N 44°42' W 002°02'9 6.7
2016-Jan-27 22:09N 44°51' W 002°04'70 7.8
2016-Jan-27 13:06N 45°58' W 001°31'4 6.5
2016-Jan-27 12:33N 46°01' W 001°29'6 6.5
2016-Jan-27 11:33N 46°05' W 001°22'  
Track history (hours):
 
Tides and Currents Weather Stations Pressure Air Temp Water Temp Dewpoint Dewpoint Depression Visibility Wind Speed Wind Dir Waves Ship Positions

F\v Tenia

Last reported at 2016-Feb-06 10:30 UTC. Time now 2016-Feb-06 18:42 UTC.
Position N 44°30' W 002°05'.

Length 22 m; draft 4 m.

Type: Fishing. MMSI: 227575000.

Date/timePositionNaut miles runAvg speedWind from/ knotsBaromVisibWave heightAir tempDewpointWater temp
2016-Feb-06 10:30N 44°30' W 002°05'0 0.4
2016-Feb-06 09:31N 44°29' W 002°05'1 1.0
2016-Feb-06 08:33N 44°30' W 002°06'0 0.4
2016-Feb-06 07:33N 44°30' W 002°07'1 0.9
2016-Feb-06 06:32N 44°29' W 002°06'1 0.8
2016-Feb-06 05:23N 44°28' W 002°05'1 1.0
2016-Feb-06 04:12N 44°29' W 002°05'1 0.9
2016-Feb-06 03:28N 44°29' W 002°05'2 1.9
2016-Feb-06 02:33N 44°27' W 002°06'5 5.0
2016-Feb-06 01:33N 44°32' W 002°06'6 5.5
2016-Feb-06 00:33N 44°37' W 002°02'0 0.3
2016-Feb-05 23:33N 44°37' W 002°02'1 0.6
2016-Feb-05 22:21N 44°38' W 002°02'  
2016-Feb-02 05:08N 44°38' W 002°01'2 1.8
2016-Feb-02 04:06N 44°37' W 002°03'2 0.1
2016-Feb-01 14:25N 44°38' W 002°01'1 0.7
2016-Feb-01 13:28N 44°38' W 002°02'  
2016-Jan-28 02:13N 44°35' W 002°05'5 2.5
2016-Jan-28 00:05N 44°40' W 002°01'3 4.4
2016-Jan-27 23:30N 44°42' W 002°02'9 6.7
2016-Jan-27 22:09N 44°51' W 002°04'70 7.8
2016-Jan-27 13:06N 45°58' W 001°31'4 6.5
2016-Jan-27 12:33N 46°01' W 001°29'6 6.5
2016-Jan-27 11:33N 46°05' W 001°22'  

Dump ship's entire track history